Time;durP1;ratioP1;P1;durP2;ratioP2;P2;SDS_P1;SDS_P2;PMS_P1;PMS_P2;Temp;Humidity;BMP_temperature;BMP_pressure;BME280_temperature;BME280_humidity;BME280_pressure;Samples;Min_cycle;Max_cycle;Signal;HPM_P1;HPM_P2
2022/01/06 00:00:43;;;;;;;1999.90;999.90;;;;;;;-0.96;60.22;100160.94;4931445;28;97448;-75
2022/01/06 00:03:11;;;;;;;1999.90;999.90;;;;;;;-0.97;59.91;100166.06;4943311;28;99643;-76
2022/01/06 00:05:39;;;;;;;1999.90;999.90;;;;;;;-0.97;60.29;100158.22;4950265;28;96898;-76
2022/01/06 00:08:08;;;;;;;1999.90;999.90;;;;;;;-0.96;60.07;100178.31;4946853;28;96629;-75
2022/01/06 00:10:36;;;;;;;1999.90;999.90;;;;;;;-0.98;60.06;100172.13;4946719;28;97612;-77
2022/01/06 00:13:10;;;;;;;1999.90;999.90;;;;;;;-0.98;59.97;100170.41;4947884;28;97566;-77
2022/01/06 00:15:44;;;;;;;1999.90;999.90;;;;;;;-0.98;60.34;100175.63;4967001;28;96717;-77
2022/01/06 00:18:23;;;;;;;1999.90;999.90;;;;;;;-1.01;59.99;100185.88;4944244;28;97891;-75
2022/01/06 00:23:39;;;;;;;1999.90;999.90;;;;;;;-1.04;60.46;100190.03;4946203;28;97900;-78
2022/01/06 00:26:07;;;;;;;1999.90;999.90;;;;;;;-1.05;60.30;100196.06;4949085;28;96965;-77
2022/01/06 00:28:36;;;;;;;1999.90;999.90;;;;;;;-1.04;60.38;100197.84;4963653;28;97187;-77
2022/01/06 00:31:04;;;;;;;1999.90;999.90;;;;;;;-1.09;60.27;100192.41;4949990;28;99657;-78
2022/01/06 00:33:33;;;;;;;1999.90;999.90;;;;;;;-1.08;60.02;100194.19;4951175;28;98802;-76
2022/01/06 00:36:01;;;;;;;1999.90;999.90;;;;;;;-1.09;60.43;100213.28;4952684;28;96769;-76
2022/01/06 00:38:29;;;;;;;1999.90;999.90;;;;;;;-1.13;60.30;100205.16;4951118;28;97047;-76
2022/01/06 00:40:58;;;;;;;1999.90;999.90;;;;;;;-1.15;60.47;100214.63;4951619;28;98980;-75
2022/01/06 00:43:26;;;;;;;1999.90;999.90;;;;;;;-1.16;60.17;100221.53;4952356;28;97649;-77
2022/01/06 00:45:54;;;;;;;1999.90;999.90;;;;;;;-1.22;60.66;100230.72;4952228;28;97134;-78
2022/01/06 00:48:22;;;;;;;1999.90;999.90;;;;;;;-1.27;60.86;100225.22;4952923;28;96895;-79
2022/01/06 00:50:50;;;;;;;1999.90;999.90;;;;;;;-1.29;60.39;100234.69;4952820;28;97670;-75
2022/01/06 00:53:17;;;;;;;1999.90;999.90;;;;;;;-1.30;60.50;100238.09;4949620;28;99185;-73
2022/01/06 00:55:47;;;;;;;1999.90;999.90;;;;;;;-1.36;61.13;100240.34;4949299;28;96969;-75
2022/01/06 00:58:16;;;;;;;1999.90;999.90;;;;;;;-1.37;60.47;100237.66;4949494;28;96926;-75
2022/01/06 01:00:44;;;;;;;1999.90;999.90;;;;;;;-1.46;61.35;100244.91;4962311;28;99674;-75
2022/01/06 01:03:15;;;;;;;1999.90;999.90;;;;;;;-1.44;61.06;100258.97;4951538;28;96902;-75
2022/01/06 01:05:46;;;;;;;1999.90;999.90;;;;;;;-1.44;60.95;100258.97;4947459;28;99422;-75
2022/01/06 01:08:15;;;;;;;1999.90;999.90;;;;;;;-1.47;60.88;100258.78;4932666;28;96796;-75
2022/01/06 01:10:44;;;;;;;1999.90;999.90;;;;;;;-1.47;61.34;100261.41;4965881;28;99930;-76
2022/01/06 01:13:13;;;;;;;1999.90;999.90;;;;;;;-1.49;61.32;100276.06;4948541;28;99104;-75
2022/01/06 01:15:47;;;;;;;1999.90;999.90;;;;;;;-1.54;60.92;100270.53;4950716;28;96833;-74
2022/01/06 01:18:18;;;;;;;1999.90;999.90;;;;;;;-1.51;61.13;100280.28;4950704;28;97182;-75
2022/01/06 01:20:46;;;;;;;1999.90;999.90;;;;;;;-1.65;61.71;100288.97;4961206;28;100431;-76
2022/01/06 01:23:14;;;;;;;1999.90;999.90;;;;;;;-1.57;61.66;100304.28;4961672;28;97774;-76
2022/01/06 01:25:42;;;;;;;1999.90;999.90;;;;;;;-1.50;61.38;100310.75;4961882;28;96825;-77
2022/01/06 01:28:11;;;;;;;1999.90;999.90;;;;;;;-1.51;60.57;100322.00;4963326;28;96632;-75
2022/01/06 01:30:51;;;;;;;1999.90;999.90;;;;;;;-1.56;60.55;100316.50;4959854;28;97983;-74
2022/01/06 01:33:30;;;;;;;1999.90;999.90;;;;;;;-1.70;59.94;100324.28;4945658;28;99436;-76
2022/01/06 01:36:00;;;;;;;1999.90;999.90;;;;;;;-1.74;60.46;100327.53;4965525;28;97233;-76
2022/01/06 01:38:30;;;;;;;1999.90;999.90;;;;;;;-1.80;60.44;100343.69;4951381;28;96762;-75
2022/01/06 01:40:59;;;;;;;1999.90;999.90;;;;;;;-1.83;60.53;100346.09;4944475;28;100958;-75
2022/01/06 01:43:27;;;;;;;1999.90;999.90;;;;;;;-1.92;60.66;100359.44;4944563;28;98634;-75
2022/01/06 01:45:57;;;;;;;1999.90;999.90;;;;;;;-1.94;60.64;100361.06;4949099;28;96763;-76
2022/01/06 01:48:34;;;;;;;1999.90;999.90;;;;;;;-2.02;59.91;100370.13;4949873;28;97353;-75
2022/01/06 01:51:08;;;;;;;1999.90;999.90;;;;;;;-2.01;60.12;100371.91;4951645;28;97720;-76
2022/01/06 01:53:37;;;;;;;1999.90;999.90;;;;;;;-2.00;60.42;100380.63;4928128;28;100577;-76
2022/01/06 01:56:06;;;;;;;1999.90;999.90;;;;;;;-2.07;59.94;100394.06;4948373;28;97412;-76
2022/01/06 01:58:36;;;;;;;1999.90;999.90;;;;;;;-2.05;60.05;100398.56;4946800;28;96856;-77
2022/01/06 02:01:05;;;;;;;1999.90;999.90;;;;;;;-2.04;60.77;100405.59;4951147;28;98758;-75
2022/01/06 02:03:36;;;;;;;1999.90;999.90;;;;;;;-2.02;60.67;100410.91;4949786;28;99505;-75
2022/01/06 02:06:04;;;;;;;1999.90;999.90;;;;;;;-1.99;60.72;100422.44;4949419;28;96757;-75
2022/01/06 02:08:32;;;;;;;1999.90;999.90;;;;;;;-2.00;60.20;100420.59;4949314;28;99172;-75
2022/01/06 02:11:02;;;;;;;1999.90;999.90;;;;;;;-1.98;60.74;100425.94;4929992;28;101031;-75
2022/01/06 02:13:31;;;;;;;1999.90;999.90;;;;;;;-2.01;60.46;100442.28;4949538;28;100249;-75
2022/01/06 02:16:04;;;;;;;1999.90;999.90;;;;;;;-2.02;60.26;100444.78;4930951;28;96854;-75
2022/01/06 02:18:33;;;;;;;1999.90;999.90;;;;;;;-2.02;60.08;100458.75;4949018;28;97237;-74
2022/01/06 02:21:05;;;;;;;1999.90;999.90;;;;;;;-2.03;60.47;100451.69;4948567;28;98554;-74
2022/01/06 02:23:33;;;;;;;1999.90;999.90;;;;;;;-2.11;59.89;100463.31;4934031;28;99723;-74
2022/01/06 02:26:07;;;;;;;1999.90;999.90;;;;;;;-2.14;60.25;100468.34;4948586;28;96761;-78
2022/01/06 02:28:36;;;;;;;1999.90;999.90;;;;;;;-2.13;60.50;100470.16;4964872;28;96897;-75
2022/01/06 02:31:04;;;;;;;1999.90;999.90;;;;;;;-2.14;60.07;100483.97;4932088;28;99080;-75
2022/01/06 02:33:32;;;;;;;1999.90;999.90;;;;;;;-2.12;59.82;100484.97;4949419;28;98953;-76
2022/01/06 02:36:01;;;;;;;1999.90;999.90;;;;;;;-2.11;59.87;100494.59;4937141;28;97272;-77
2022/01/06 02:38:34;;;;;;;1999.90;999.90;;;;;;;-2.13;60.40;100505.72;4939361;28;97293;-73
2022/01/06 02:41:03;;;;;;;1999.90;999.90;;;;;;;-2.17;59.38;100509.84;4946542;28;100128;-74
2022/01/06 02:43:32;;;;;;;1999.90;999.90;;;;;;;-2.18;60.36;100509.72;4946782;28;100792;-76
2022/01/06 02:46:01;;;;;;;1999.90;999.90;;;;;;;-2.24;59.78;100511.91;4946738;28;96963;-75
2022/01/06 02:48:30;;;;;;;1999.90;999.90;;;;;;;-2.27;60.09;100528.22;4930806;28;97053;-75
2022/01/06 02:50:58;;;;;;;1999.90;999.90;;;;;;;-2.27;59.98;100529.94;4950188;28;97718;-75
2022/01/06 02:53:26;;;;;;;1999.90;999.90;;;;;;;-2.33;59.54;100534.72;4945778;28;98996;-76
2022/01/06 02:55:55;;;;;;;1999.90;999.90;;;;;;;-2.39;59.36;100536.91;4950033;28;97487;-75
2022/01/06 02:58:40;;;;;;;1999.90;999.90;;;;;;;-2.50;59.58;100553.50;4948005;28;97124;-76
2022/01/06 03:01:08;;;;;;;1999.90;999.90;;;;;;;-2.57;60.30;100562.59;4947695;28;97681;-75
2022/01/06 03:03:36;;;;;;;1999.90;999.90;;;;;;;-2.64;59.66;100570.78;4928484;28;99130;-75
2022/01/06 03:06:04;;;;;;;1999.90;999.90;;;;;;;-2.62;60.21;100578.69;4944531;28;96779;-77
2022/01/06 03:08:34;;;;;;;1999.90;999.90;;;;;;;-2.59;60.00;100581.50;4961931;28;96905;-74
2022/01/06 03:11:03;;;;;;;1999.90;999.90;;;;;;;-2.58;60.35;100586.81;4929912;28;99499;-74
2022/01/06 03:13:31;;;;;;;1999.90;999.90;;;;;;;-2.59;60.14;100595.44;4948534;28;97578;-76
2022/01/06 03:16:12;;;;;;;1999.90;999.90;;;;;;;-2.57;60.15;100609.47;4947027;28;97018;-74
2022/01/06 03:18:55;;;;;;;1999.90;999.90;;;;;;;-2.60;60.12;100609.25;4945675;28;97034;-74
2022/01/06 03:21:22;;;;;;;1999.90;999.90;;;;;;;-2.58;60.20;100619.81;4942090;28;97679;-74
2022/01/06 03:23:50;;;;;;;1999.90;999.90;;;;;;;-2.58;59.78;100628.50;4947811;28;99250;-75
2022/01/06 03:26:19;;;;;;;1999.90;999.90;;;;;;;-2.59;59.96;100631.91;4948280;28;96793;-74
2022/01/06 03:28:50;;;;;;;1999.90;999.90;;;;;;;-2.64;59.31;100633.28;4947603;28;96855;-73
2022/01/06 03:31:20;;;;;;;1999.90;999.90;;;;;;;-2.62;59.98;100641.22;4942594;28;99920;-74
2022/01/06 03:33:48;;;;;;;1999.90;999.90;;;;;;;-2.63;60.17;100634.16;4947457;28;98993;-76
2022/01/06 03:36:16;;;;;;;1999.90;999.90;;;;;;;-2.60;60.24;100644.81;4948053;28;97840;-74
2022/01/06 03:38:43;;;;;;;1999.90;999.90;;;;;;;-2.58;59.83;100657.13;4943487;28;101278;-76
2022/01/06 03:41:11;;;;;;;1999.90;999.90;;;;;;;-2.64;58.92;100664.53;4947688;28;99430;-75
2022/01/06 03:43:41;;;;;;;1999.90;999.90;;;;;;;-2.65;59.54;100675.72;4945969;28;98885;-75
2022/01/06 03:46:09;;;;;;;1999.90;999.90;;;;;;;-2.71;59.73;100671.81;4948910;28;96840;-76
2022/01/06 03:48:39;;;;;;;1999.90;999.90;;;;;;;-2.73;59.25;100678.59;4943858;28;96861;-77
2022/01/06 03:51:07;;;;;;;1999.90;999.90;;;;;;;-2.80;59.70;100673.75;4932047;28;101705;-76
2022/01/06 03:53:35;;;;;;;1999.90;999.90;;;;;;;-2.87;59.31;100685.41;4948959;28;96783;-76
2022/01/06 03:56:03;;;;;;;1999.90;999.90;;;;;;;-2.95;59.38;100681.34;4947459;28;96851;-76
2022/01/06 03:58:31;;;;;;;1999.90;999.90;;;;;;;-3.04;59.55;100684.16;4949071;28;97663;-76
2022/01/06 04:01:00;;;;;;;1999.90;999.90;;;;;;;-3.10;59.25;100694.16;4939508;28;97654;-77
2022/01/06 04:03:31;;;;;;;1999.90;999.90;;;;;;;-3.13;59.69;100693.03;4948379;28;99050;-76
2022/01/06 04:05:59;;;;;;;1999.90;999.90;;;;;;;-3.16;59.79;100698.88;4948642;28;96620;-76
2022/01/06 04:08:26;;;;;;;1999.90;999.90;;;;;;;-3.18;59.58;100703.06;4951448;28;96793;-75
2022/01/06 04:10:54;;;;;;;1999.90;999.90;;;;;;;-3.23;59.64;100704.44;4947883;28;99266;-76
2022/01/06 04:13:25;;;;;;;1999.90;999.90;;;;;;;-3.26;60.11;100708.50;4949321;28;99493;-77
2022/01/06 04:15:54;;;;;;;1999.90;999.90;;;;;;;-3.26;59.54;100716.31;4932953;28;96912;-77
2022/01/06 04:18:25;;;;;;;1999.90;999.90;;;;;;;-3.30;59.46;100727.28;4951007;28;96870;-77
2022/01/06 04:20:53;;;;;;;1999.90;999.90;;;;;;;-3.33;59.75;100721.84;4932185;28;100199;-77
2022/01/06 04:23:20;;;;;;;1999.90;999.90;;;;;;;-3.33;59.93;100734.84;4950753;28;97866;-76
2022/01/06 04:25:48;;;;;;;1999.90;999.90;;;;;;;-3.37;59.48;100736.34;4951330;28;97255;-76
2022/01/06 04:28:16;;;;;;;1999.90;999.90;;;;;;;-3.40;59.97;100738.69;4951157;28;99123;-76
2022/01/06 04:30:43;;;;;;;1999.90;999.90;;;;;;;-3.43;59.57;100745.34;4949142;28;97867;-76
2022/01/06 04:33:11;;;;;;;1999.90;999.90;;;;;;;-3.42;59.89;100763.66;4930506;28;99754;-72
2022/01/06 04:35:41;;;;;;;1999.90;999.90;;;;;;;-3.44;59.29;100761.75;4949223;28;97207;-75
2022/01/06 04:38:09;;;;;;;1999.90;999.90;;;;;;;-3.45;59.81;100765.13;4947557;28;96850;-74
2022/01/06 04:40:39;;;;;;;1999.90;999.90;;;;;;;-3.47;59.29;100774.50;4939417;28;96806;-74
2022/01/06 04:43:07;;;;;;;1999.90;999.90;;;;;;;-3.46;59.25;100781.53;4948671;28;99553;-75
2022/01/06 04:45:35;;;;;;;1999.90;999.90;;;;;;;-3.47;59.24;100774.50;4949811;28;96979;-75
2022/01/06 04:48:03;;;;;;;1999.90;999.90;;;;;;;-3.48;58.80;100778.81;4932614;28;97160;-75
2022/01/06 04:50:31;;;;;;;1999.90;999.90;;;;;;;-3.50;59.09;100782.09;4950304;28;96802;-75
2022/01/06 04:53:00;;;;;;;1999.90;999.90;;;;;;;-3.51;59.31;100790.69;4934547;28;99806;-74
2022/01/06 04:55:32;;;;;;;1999.90;999.90;;;;;;;-3.53;59.49;100794.88;4950969;28;99205;-73
2022/01/06 04:58:00;;;;;;;1999.90;999.90;;;;;;;-3.54;59.44;100790.44;4950779;28;97303;-74
2022/01/06 05:00:28;;;;;;;1999.90;999.90;;;;;;;-3.56;59.15;100811.13;4948540;28;100740;-74
2022/01/06 05:02:56;;;;;;;1999.90;999.90;;;;;;;-3.57;59.24;100819.72;4945852;28;99163;-75
2022/01/06 05:05:24;;;;;;;1999.90;999.90;;;;;;;-3.57;58.99;100819.72;4947820;28;96802;-75
2022/01/06 05:07:51;;;;;;;1999.90;999.90;;;;;;;-3.60;59.12;100818.59;4949302;28;97307;-77
2022/01/06 05:10:20;;;;;;;1999.90;999.90;;;;;;;-3.61;59.29;100815.06;4948465;28;97721;-78
2022/01/06 05:12:48;;;;;;;1999.90;999.90;;;;;;;-3.61;59.50;100824.56;4948329;28;97663;-76
2022/01/06 05:15:16;;;;;;;1999.90;999.90;;;;;;;-3.61;59.50;100834.97;4950418;28;96787;-75
2022/01/06 05:17:43;;;;;;;1999.90;999.90;;;;;;;-3.61;59.66;100828.06;4946542;28;96797;-75
2022/01/06 05:20:12;;;;;;;1999.90;999.90;;;;;;;-3.60;59.20;100831.59;4950758;28;99235;-75
2022/01/06 05:22:44;;;;;;;1999.90;999.90;;;;;;;-3.62;59.48;100830.56;4952033;28;98699;-77
2022/01/06 05:25:13;;;;;;;1999.90;999.90;;;;;;;-3.64;59.56;100838.22;4949932;28;97536;-74
2022/01/06 05:27:42;;;;;;;1999.90;999.90;;;;;;;-3.68;59.13;100851.78;4950068;28;96886;-74
2022/01/06 05:30:10;;;;;;;1999.90;999.90;;;;;;;-3.70;59.61;100852.44;4945707;28;97884;-75
2022/01/06 05:32:38;;;;;;;1999.90;999.90;;;;;;;-3.70;59.11;100860.25;4948898;28;98784;-77
2022/01/06 05:35:06;;;;;;;1999.90;999.90;;;;;;;-3.72;59.31;100869.59;4942241;28;96949;-75
2022/01/06 05:37:34;;;;;;;1999.90;999.90;;;;;;;-3.76;59.37;100867.53;4941798;28;97815;-73
2022/01/06 05:40:02;;;;;;;1999.90;999.90;;;;;;;-3.78;59.17;100876.91;4942310;28;98981;-76
2022/01/06 05:42:29;;;;;;;1999.90;999.90;;;;;;;-3.82;59.42;100877.47;4941850;28;97695;-75
2022/01/06 05:44:58;;;;;;;1999.90;999.90;;;;;;;-3.88;59.64;100872.72;4941248;28;98104;-76
2022/01/06 05:47:26;;;;;;;1999.90;999.90;;;;;;;-3.87;59.44;100884.91;4942921;28;97965;-75
2022/01/06 05:49:54;;;;;;;1999.90;999.90;;;;;;;-3.86;59.38;100890.22;4935909;28;99335;-75
2022/01/06 05:52:21;;;;;;;1999.90;999.90;;;;;;;-3.88;59.38;100891.78;4941178;28;98714;-76
2022/01/06 05:54:50;;;;;;;1999.90;999.90;;;;;;;-3.89;59.59;100894.25;4935470;28;97616;-75
2022/01/06 05:57:19;;;;;;;1999.90;999.90;;;;;;;-3.92;59.37;100897.53;4943093;28;97097;-75
2022/01/06 05:59:47;;;;;;;1999.90;999.90;;;;;;;-3.92;59.77;100892.34;4943464;28;100625;-75
2022/01/06 06:02:16;;;;;;;1999.90;999.90;;;;;;;-3.94;59.75;100893.91;4945365;28;100469;-76
2022/01/06 06:04:45;;;;;;;1999.90;999.90;;;;;;;-3.97;59.76;100908.34;4950016;28;96978;-76
2022/01/06 06:07:13;;;;;;;1999.90;999.90;;;;;;;-3.98;59.74;100907.44;4950309;28;97409;-76
2022/01/06 06:09:41;;;;;;;1999.90;999.90;;;;;;;-3.97;59.98;100923.94;4947300;28;98702;-76
2022/01/06 06:12:10;;;;;;;1999.90;999.90;;;;;;;-3.99;59.62;100921.19;4947746;28;99370;-75
2022/01/06 06:14:37;;;;;;;1999.90;999.90;;;;;;;-3.99;59.72;100931.59;4945477;28;97158;-76
2022/01/06 06:17:06;;;;;;;1999.90;999.90;;;;;;;-3.99;60.10;100944.59;4946027;28;98912;-76
2022/01/06 06:19:35;;;;;;;1999.90;999.90;;;;;;;-3.98;60.08;100938.63;4949031;28;97652;-75
2022/01/06 06:22:03;;;;;;;1999.90;999.90;;;;;;;-3.97;60.00;100939.53;4947227;28;99289;-75
2022/01/06 06:24:30;;;;;;;1999.90;999.90;;;;;;;-3.96;60.16;100955.25;4946452;28;96794;-75
2022/01/06 06:26:59;;;;;;;1999.90;999.90;;;;;;;-3.94;60.01;100956.28;4947882;28;97448;-75
2022/01/06 06:29:26;;;;;;;1999.90;999.90;;;;;;;-3.94;59.58;100961.50;4948285;28;97865;-75
2022/01/06 06:31:54;;;;;;;1999.90;999.90;;;;;;;-3.91;59.76;100961.72;4947116;28;97854;-75
2022/01/06 06:34:22;;;;;;;1999.90;999.90;;;;;;;-3.90;59.76;100957.44;4948107;28;96927;-75
2022/01/06 06:36:51;;;;;;;1999.90;999.90;;;;;;;-3.87;59.64;100963.78;4950016;28;97409;-75
2022/01/06 06:39:18;;;;;;;1999.90;999.90;;;;;;;-3.84;59.83;100964.81;4947589;28;98752;-75
2022/01/06 06:41:46;;;;;;;1999.90;999.90;;;;;;;-3.82;59.50;100969.34;4948842;28;99309;-74
2022/01/06 06:44:14;;;;;;;1999.90;999.90;;;;;;;-3.81;59.90;100983.25;4947128;28;96919;-75
2022/01/06 06:46:41;;;;;;;1999.90;999.90;;;;;;;-3.81;59.53;100983.25;4946671;28;96765;-74
2022/01/06 06:49:09;;;;;;;1999.90;999.90;;;;;;;-3.78;59.35;100993.91;4947655;28;99034;-75
2022/01/06 06:51:40;;;;;;;1999.90;999.90;;;;;;;-3.80;59.54;100987.69;4948901;28;97571;-75
2022/01/06 06:54:13;;;;;;;1999.90;999.90;;;;;;;-3.77;59.60;100995.72;4949591;28;96850;-74
2022/01/06 06:56:41;;;;;;;1999.90;999.90;;;;;;;-3.75;59.23;100994.16;4942465;28;96739;-75
2022/01/06 06:59:09;;;;;;;1999.90;999.90;;;;;;;-3.72;59.41;101004.81;4947633;28;98142;-75
2022/01/06 07:01:37;;;;;;;1999.90;999.90;;;;;;;-3.75;59.22;101009.75;4931667;28;99415;-73
2022/01/06 07:04:05;;;;;;;1999.90;999.90;;;;;;;-3.77;58.99;101020.03;4949255;28;98907;-76
2022/01/06 07:06:35;;;;;;;1999.90;999.90;;;;;;;-3.75;59.56;101022.75;4948962;28;96823;-77
2022/01/06 07:09:04;;;;;;;1999.90;999.90;;;;;;;-3.77;59.05;101026.94;4945895;28;101929;-75
2022/01/06 07:11:36;;;;;;;1999.90;999.90;;;;;;;-3.83;59.11;101035.13;4932531;28;98949;-74
2022/01/06 07:14:05;;;;;;;1999.90;999.90;;;;;;;-3.72;59.25;101030.81;4945531;28;96611;-73
2022/01/06 07:16:33;;;;;;;1999.90;999.90;;;;;;;-3.73;59.30;101039.41;4948452;28;96844;-77
2022/01/06 07:19:00;;;;;;;1999.90;999.90;;;;;;;-3.73;59.18;101042.00;4949264;28;100686;-73
2022/01/06 07:21:28;;;;;;;1999.90;999.90;;;;;;;-3.71;59.29;101046.50;4946970;28;97764;-75
2022/01/06 07:23:56;;;;;;;1999.90;999.90;;;;;;;-3.73;59.35;101049.78;4948345;28;97221;-76
2022/01/06 07:26:24;;;;;;;1999.90;999.90;;;;;;;-3.71;59.02;101061.22;4950443;28;97310;-74
2022/01/06 07:28:53;;;;;;;1999.90;999.90;;;;;;;-3.69;58.87;101051.84;4951084;28;97956;-75
2022/01/06 07:31:20;;;;;;;1999.90;999.90;;;;;;;-3.65;59.15;101061.72;4949217;28;98624;-74
2022/01/06 07:33:48;;;;;;;1999.90;999.90;;;;;;;-3.62;58.79;101077.59;4946916;28;95930;-73
2022/01/06 07:36:16;;;;;;;1999.90;999.90;;;;;;;-3.64;59.00;101068.75;4948473;28;96752;-73
2022/01/06 07:38:44;;;;;;;1999.90;999.90;;;;;;;-3.62;58.95;101068.06;4950338;28;98026;-73
2022/01/06 07:41:11;;;;;;;1999.90;999.90;;;;;;;-3.61;59.01;101077.69;4949112;28;98226;-76
2022/01/06 07:43:39;;;;;;;1999.90;999.90;;;;;;;-3.64;58.95;101076.53;4952335;28;97210;-73
2022/01/06 07:46:08;;;;;;;1999.90;999.90;;;;;;;-3.63;58.84;101084.47;4951345;28;98748;-74
2022/01/06 07:48:54;;;;;;;1999.90;999.90;;;;;;;-3.60;58.65;101094.22;4952547;28;97052;-74
2022/01/06 07:51:22;;;;;;;1999.90;999.90;;;;;;;-3.57;58.62;101095.38;4951310;28;97631;-74
2022/01/06 07:53:51;;;;;;;1999.90;999.90;;;;;;;-3.53;58.90;101106.94;4949682;28;97753;-76
2022/01/06 07:56:18;;;;;;;1999.90;999.90;;;;;;;-3.52;58.71;101108.75;4947369;28;96918;-74
2022/01/06 07:58:47;;;;;;;1999.90;999.90;;;;;;;-3.53;58.98;101113.03;4949357;28;97086;-74
2022/01/06 08:01:16;;;;;;;1999.90;999.90;;;;;;;-3.52;58.54;101113.94;4950846;28;99051;-74
2022/01/06 08:03:45;;;;;;;1999.90;999.90;;;;;;;-3.52;58.79;101120.06;4952835;28;97227;-72
2022/01/06 08:06:13;;;;;;;1999.90;999.90;;;;;;;-3.54;58.38;101125.91;4947725;28;97430;-71
2022/01/06 08:08:42;;;;;;;1999.90;999.90;;;;;;;-3.52;58.49;101130.47;4952473;28;97326;-75
2022/01/06 08:11:09;;;;;;;1999.90;999.90;;;;;;;-3.54;58.26;101131.13;4955975;28;97764;-75
2022/01/06 08:13:37;;;;;;;1999.90;999.90;;;;;;;-3.57;58.43;101136.06;4951137;28;96780;-77
2022/01/06 08:16:06;;;;;;;1999.90;999.90;;;;;;;-3.50;58.85;101148.78;4950187;28;96870;-75
2022/01/06 08:18:38;;;;;;;1999.90;999.90;;;;;;;-3.56;58.42;101145.69;4928182;28;100333;-75
2022/01/06 08:21:05;;;;;;;1999.90;999.90;;;;;;;-3.54;58.30;101146.72;4948907;28;97948;-73
2022/01/06 08:23:33;;;;;;;1999.90;999.90;;;;;;;-3.50;58.30;101160.13;4964644;28;96748;-75
2022/01/06 08:26:03;;;;;;;1999.90;999.90;;;;;;;-3.48;58.25;101155.03;4949337;28;97204;-76
2022/01/06 08:28:31;;;;;;;1999.90;999.90;;;;;;;-3.44;58.08;101155.41;4950083;28;100634;-77
2022/01/06 08:30:59;;;;;;;1999.90;999.90;;;;;;;-3.40;58.49;101161.78;4950772;28;99279;-77
2022/01/06 08:33:27;;;;;;;1999.90;999.90;;;;;;;-3.33;58.63;101164.09;4951244;28;97030;-77
2022/01/06 08:35:58;;;;;;;1999.90;999.90;;;;;;;-3.28;58.58;101162.78;4930640;28;96722;-77
2022/01/06 08:38:26;;;;;;;1999.90;999.90;;;;;;;-3.24;58.23;101170.94;4934920;28;99639;-76
2022/01/06 08:40:54;;;;;;;1999.90;999.90;;;;;;;-3.23;57.78;101164.06;4954843;28;98725;-77
2022/01/06 08:43:27;;;;;;;1999.90;999.90;;;;;;;-3.26;57.83;101164.75;4953201;28;97340;-75
2022/01/06 08:45:56;;;;;;;1999.90;999.90;;;;;;;-3.22;58.20;101166.78;4953976;28;96891;-76
2022/01/06 08:48:29;;;;;;;1999.90;999.90;;;;;;;-3.19;58.29;101173.94;4933250;28;100587;-76
2022/01/06 08:51:02;;;;;;;1999.90;999.90;;;;;;;-3.15;58.46;101176.91;4944546;28;98499;-74
2022/01/06 08:53:32;;;;;;;1999.90;999.90;;;;;;;-3.13;58.44;101190.06;4952965;28;96684;-78
2022/01/06 08:56:02;;;;;;;1999.90;999.90;;;;;;;-3.09;57.72;101194.72;4964579;28;97050;-76
2022/01/06 08:58:34;;;;;;;1999.90;999.90;;;;;;;-3.06;57.65;101197.59;4951791;28;98132;-77
2022/01/06 09:01:04;;;;;;;1999.90;999.90;;;;;;;-3.04;58.33;101201.22;4932940;28;99991;-75
2022/01/06 09:03:33;;;;;;;1999.90;999.90;;;;;;;-2.99;58.08;101210.31;4951656;28;96931;-78
2022/01/06 09:06:08;;;;;;;1999.90;999.90;;;;;;;-2.98;57.76;101207.81;4938980;28;96710;-75
2022/01/06 09:08:37;;;;;;;1999.90;999.90;;;;;;;-2.97;57.76;101208.75;4949522;28;98305;-78
2022/01/06 09:11:05;;;;;;;1999.90;999.90;;;;;;;-2.93;58.44;101203.91;4943943;28;97534;-78
2022/01/06 09:13:41;;;;;;;1999.90;999.90;;;;;;;-2.91;57.78;101214.47;4947468;28;96835;-76
2022/01/06 09:16:09;;;;;;;1999.90;999.90;;;;;;;-2.90;57.74;101211.97;4948140;28;96924;-75
2022/01/06 09:18:39;;;;;;;1999.90;999.90;;;;;;;-2.86;58.24;101210.53;4927460;28;99277;-76
2022/01/06 09:21:11;;;;;;;1999.90;999.90;;;;;;;-2.88;58.21;101217.31;4931762;28;99567;-78
2022/01/06 09:23:40;;;;;;;1999.90;999.90;;;;;;;-2.88;57.81;101225.13;4933721;28;96601;-76
2022/01/06 09:26:12;;;;;;;1999.90;999.90;;;;;;;-2.86;57.93;101226.16;4932543;28;96889;-75
2022/01/06 09:28:46;;;;;;;1999.90;999.90;;;;;;;-2.86;58.26;101233.97;4928957;28;100643;-76
2022/01/06 09:31:18;;;;;;;1999.90;999.90;;;;;;;-2.85;58.57;101235.75;4932165;28;99591;-78
2022/01/06 09:33:51;;;;;;;1999.90;999.90;;;;;;;-2.81;58.31;101235.22;4950349;28;98956;-78
2022/01/06 09:36:29;;;;;;;1999.90;999.90;;;;;;;-2.84;57.46;101245.41;4949591;28;97712;-78
2022/01/06 09:39:01;;;;;;;1999.90;999.90;;;;;;;-2.80;57.81;101244.84;4963852;28;98923;-77
2022/01/06 09:41:31;;;;;;;1999.90;999.90;;;;;;;-2.78;58.06;101238.06;4948825;28;97980;-77
2022/01/06 09:44:01;;;;;;;1999.90;999.90;;;;;;;-2.75;58.45;101242.63;4949283;28;96997;-77
2022/01/06 09:46:51;;;;;;;1999.90;999.90;;;;;;;-2.75;57.57;101243.56;4964775;28;96978;-78
2022/01/06 09:49:22;;;;;;;1999.90;999.90;;;;;;;-2.72;58.08;101251.59;4932256;28;101299;-77
2022/01/06 09:52:05;;;;;;;1999.90;999.90;;;;;;;-2.70;58.00;101251.72;4930210;28;101275;-78
2022/01/06 09:57:23;;;;;;;1999.90;999.90;;;;;;;-2.64;58.30;101247.03;4932485;28;96886;-78
2022/01/06 09:59:51;;;;;;;1999.90;999.90;;;;;;;-2.63;57.57;101244.53;4951423;28;98728;-76
2022/01/06 10:02:19;;;;;;;1999.90;999.90;;;;;;;-2.59;57.87;101244.00;4949268;28;99313;-76
2022/01/06 10:04:58;;;;;;;1999.90;999.90;;;;;;;-2.60;58.38;101239.56;4948512;28;96802;-76
2022/01/06 10:07:35;;;;;;;1999.90;999.90;;;;;;;-2.59;58.15;101246.59;4949985;28;97335;-77
2022/01/06 10:10:08;;;;;;;1999.90;999.90;;;;;;;-2.55;57.68;101248.69;4950187;28;96965;-76
2022/01/06 10:12:38;;;;;;;1999.90;999.90;;;;;;;-2.52;57.96;101251.53;4949027;28;98155;-78
2022/01/06 10:15:17;;;;;;;1999.90;999.90;;;;;;;-2.52;57.90;101243.69;4951284;28;97055;-77
2022/01/06 10:17:45;;;;;;;1999.90;999.90;;;;;;;-2.51;57.94;101248.09;4950611;28;96712;-79
2022/01/06 10:20:14;;;;;;;1999.90;999.90;;;;;;;-2.48;57.93;101252.66;4951551;28;100914;-76
2022/01/06 10:22:49;;;;;;;1999.90;999.90;;;;;;;-2.46;57.57;101254.63;4951250;28;97714;-77
2022/01/06 10:25:18;;;;;;;1999.90;999.90;;;;;;;-2.42;58.05;101254.09;4942645;28;98731;-77
2022/01/06 10:27:46;;;;;;;1999.90;999.90;;;;;;;-2.38;57.50;101250.91;4949643;28;97804;-76
2022/01/06 10:30:14;;;;;;;1999.90;999.90;;;;;;;-2.35;57.77;101256.38;4950087;28;96771;-76
2022/01/06 10:32:43;;;;;;;1999.90;999.90;;;;;;;-2.31;58.01;101261.03;4948107;28;98637;-76
2022/01/06 10:35:17;;;;;;;1999.90;999.90;;;;;;;-2.28;58.15;101263.91;4951587;28;97473;-77
2022/01/06 10:37:48;;;;;;;1999.90;999.90;;;;;;;-2.26;57.66;101264.03;4949239;28;96851;-77
2022/01/06 10:40:22;;;;;;;1999.90;999.90;;;;;;;-2.24;57.72;101262.44;4952778;28;98849;-77
2022/01/06 10:42:52;;;;;;;1999.90;999.90;;;;;;;-2.23;57.99;101273.00;4949342;28;99245;-76
2022/01/06 10:45:24;;;;;;;1999.90;999.90;;;;;;;-2.19;57.38;101264.63;4945245;28;96868;-72
2022/01/06 10:47:53;;;;;;;1999.90;999.90;;;;;;;-2.14;57.41;101270.22;4946422;28;97199;-68
2022/01/06 10:50:23;;;;;;;1999.90;999.90;;;;;;;-2.11;57.39;101266.16;4942967;28;96920;-79
2022/01/06 10:52:54;;;;;;;1999.90;999.90;;;;;;;-2.11;56.91;101275.72;4947633;28;98776;-75
2022/01/06 10:55:26;;;;;;;1999.90;999.90;;;;;;;-2.07;57.72;101283.00;4946227;28;98013;-76
2022/01/06 10:57:56;;;;;;;1999.90;999.90;;;;;;;-2.05;57.50;101269.25;4931311;28;96790;-77
2022/01/06 11:00:27;;;;;;;1999.90;999.90;;;;;;;-2.02;57.09;101277.34;4947775;28;99728;-76
2022/01/06 11:03:06;;;;;;;1999.90;999.90;;;;;;;-2.02;56.95;101276.44;4954304;28;100854;-76